Karin S — V2BM6 — position and weather

sailwx.info

Track history (hours):
 
Tides and Currents Weather Stations Pressure Air Temp Water Temp Dewpoint Dewpoint Depression Visibility Wind Speed Wind Dir Waves Ship Positions

Karin S

Last reported at 2017-Aug-19 20:23 UTC. Time now 2017-Aug-19 20:31 UTC.
Position N 39°50' E 003°43'.

Length 141 m; draft 7.6 m.

Type: Cargo ship. MMSI: 304871000.

Date/timePositionNaut miles runAvg speedWind from/ knotsBaromVisibWave heightAir tempDewpointWater temp
2017-Aug-19 20:23N 39°50' E 003°43'612.3
2017-Aug-19 19:55N 39°55' E 003°39'3112.2
2017-Aug-19 17:25N 40°19' E 003°13'512.1
2017-Aug-19 17:00N 40°22' E 003°09'612.4
2017-Aug-19 16:30N 40°27' E 003°04'612.5
2017-Aug-19 16:00N 40°32' E 002°59'612.5
2017-Aug-19 15:30N 40°37' E 002°54'612.9
2017-Aug-19 15:00N 40°42' E 002°48'1211.9
2017-Aug-19 14:00N 40°51' E 002°39'612.2
2017-Aug-19 13:30N 40°56' E 002°34'612.0
2017-Aug-19 13:00N 41°01' E 002°28'612.1
2017-Aug-19 12:28N 41°05' E 002°23'612.3
2017-Aug-19 12:00N 41°10' E 002°18'612.3
2017-Aug-19 11:29N 41°15' E 002°13'5 8.9
2017-Aug-19 10:57N 41°19' E 002°09'0 0.0
2017-Aug-19 03:48N 41°19' E 002°09'0 0.0
2017-Aug-19 03:30N 41°19' E 002°09'0 0.0
2017-Aug-19 02:06N 41°19' E 002°09'0 0.0
2017-Aug-19 02:00N 41°19' E 002°09'0 0.0
2017-Aug-19 00:42N 41°19' E 002°09'0 0.0
2017-Aug-18 22:48N 41°19' E 002°09'1 1.6
2017-Aug-18 22:26N 41°19' E 002°10'1 3.0
2017-Aug-18 22:00N 41°19' E 002°11'0 0.6
2017-Aug-18 21:12N 41°20' E 002°12'0 0.0
2017-Aug-18 20:46N 41°20' E 002°12'0 0.0
2017-Aug-18 20:28N 41°20' E 002°12'0 0.0
2017-Aug-18 20:00N 41°20' E 002°12'0 0.0
2017-Aug-18 19:28N 41°20' E 002°12'0 0.0
2017-Aug-18 18:46N 41°20' E 002°12'0 0.0
2017-Aug-18 18:28N 41°20' E 002°12'0 0.0
2017-Aug-18 17:58N 41°20' E 002°12'0 0.0
2017-Aug-18 17:18N 41°20' E 002°12'0 0.0
2017-Aug-18 17:00N 41°20' E 002°12'0 0.0
2017-Aug-18 16:16N 41°20' E 002°12'0 0.0
2017-Aug-18 15:58N 41°20' E 002°12'0 0.0
2017-Aug-18 15:24N 41°20' E 002°12'0 0.0
2017-Aug-18 14:54N 41°20' E 002°12'0 0.0
2017-Aug-18 13:58N 41°20' E 002°12'0 0.0
2017-Aug-18 13:12N 41°20' E 002°12'0 0.0
2017-Aug-18 11:45N 41°20' E 002°12'0 0.0
2017-Aug-18 11:15N 41°20' E 002°12'0 0.0
2017-Aug-18 10:48N 41°20' E 002°12'0 0.0
2017-Aug-18 10:27N 41°20' E 002°12'0 0.0
2017-Aug-18 09:57N 41°20' E 002°12'0 0.0
2017-Aug-18 08:51N 41°20' E 002°12'0 0.0
2017-Aug-18 08:27N 41°20' E 002°12'0 0.0
2017-Aug-18 06:21N 41°20' E 002°12'0 0.0
2017-Aug-18 05:51N 41°20' E 002°12'0 0.0
2017-Aug-18 05:27N 41°20' E 002°12'0 0.0
2017-Aug-18 04:51N 41°20' E 002°12'0 0.0
2017-Aug-18 04:27N 41°20' E 002°12'0 0.0
2017-Aug-18 03:57N 41°20' E 002°12'1 1.7
2017-Aug-18 03:26N 41°20' E 002°13'3 6.8
2017-Aug-18 03:00N 41°17' E 002°12'5 8.1
2017-Aug-18 02:26N 41°13' E 002°09'510.8
2017-Aug-18 02:00N 41°09' E 002°05'610.8
2017-Aug-18 01:30N 41°05' E 002°01'511.1
2017-Aug-18 01:00N 41°00' E 001°58'611.1
2017-Aug-18 00:28N 40°55' E 001°53'510.9
2017-Aug-18 00:00N 40°51' E 001°49'611.0
2017-Aug-17 23:30N 40°47' E 001°45'1211.3
2017-Aug-17 22:28N 40°36' E 001°37'511.3
2017-Aug-17 22:00N 40°32' E 001°33'611.6
2017-Aug-17 21:30N 40°27' E 001°29'611.4
2017-Aug-17 21:00N 40°23' E 001°25'611.5
2017-Aug-17 20:30N 40°18' E 001°20'611.3
2017-Aug-17 20:00N 40°13' E 001°16'610.9
2017-Aug-17 19:30N 40°08' E 001°12'510.9
2017-Aug-17 19:00N 40°04' E 001°09'511.0
2017-Aug-17 18:30N 39°59' E 001°06'611.2
2017-Aug-17 18:00N 39°54' E 001°02'511.1
2017-Aug-17 17:30N 39°49' E 000°58'510.6
2017-Aug-17 17:00N 39°45' E 000°53'511.0
2017-Aug-17 16:30N 39°44' E 000°46'70 1.9
2017-Aug-16 04:24N 38°36' E 000°25'511.3
2017-Aug-16 03:59N 38°32' E 000°24'711.3
2017-Aug-16 03:25N 38°25' E 000°22'1211.1
2017-Aug-16 02:17N 38°13' E 000°19'511.1
2017-Aug-16 01:51N 38°08' E 000°17'511.3
2017-Aug-16 01:25N 38°04' E 000°14'1911.3
2017-Aug-15 23:43N 37°45' E 000°08'1211.2
2017-Aug-15 22:41N 37°34' E 000°05'411.1
2017-Aug-15 22:22N 37°31' E 000°04'611.0
2017-Aug-15 21:48N 37°25' E 000°02'611.4
2017-Aug-15 21:19N 37°19' W 000°00'411.5
2017-Aug-15 21:00N 37°16' W 000°01'611.4
2017-Aug-15 20:30N 37°10' W 000°03'611.3
2017-Aug-15 19:59N 37°05' W 000°05'611.5
2017-Aug-15 19:29N 36°59' W 000°07'611.4
2017-Aug-15 18:58N 36°53' W 000°08'611.3
2017-Aug-15 18:29N 36°48' W 000°10'510.9
2017-Aug-15 18:00N 36°43' W 000°12'510.7
2017-Aug-15 17:30N 36°38' W 000°14'710.8
2017-Aug-15 16:49N 36°31' W 000°16'310.9
2017-Aug-15 16:30N 36°27' W 000°17'910.9
2017-Aug-15 15:42N 36°19' W 000°20'310.9
2017-Aug-15 15:28N 36°16' W 000°21'37 1.0
2017-Aug-14 01:42N 35°43' W 000°38'0 0.0
2017-Aug-14 01:27N 35°43' W 000°38'0 0.0
2017-Aug-14 00:59N 35°43' W 000°38'0 0.0
2017-Aug-13 01:21N 35°43' W 000°38'0 0.0
2017-Aug-12 02:56N 35°43' W 000°38'0 0.0
2017-Aug-12 00:28N 35°43' W 000°38'0 0.0
2017-Aug-11 20:13N 35°43' W 000°38'0 0.0
2017-Aug-11 19:58N 35°43' W 000°38'0 0.0
2017-Aug-11 19:21N 35°43' W 000°38'2 0.0
2017-Aug-09 21:24N 35°45' W 000°38'0 0.0
2017-Aug-09 21:00N 35°45' W 000°38'  
Track history (hours):
 
Tides and Currents Weather Stations Pressure Air Temp Water Temp Dewpoint Dewpoint Depression Visibility Wind Speed Wind Dir Waves Ship Positions

Karin S

Last reported at 2017-Aug-19 20:23 UTC. Time now 2017-Aug-19 20:31 UTC.
Position N 39°50' E 003°43'.

Length 141 m; draft 7.6 m.

Type: Cargo ship. MMSI: 304871000.

Date/timePositionNaut miles runAvg speedWind from/ knotsBaromVisibWave heightAir tempDewpointWater temp
2017-Aug-19 20:23N 39°50' E 003°43'612.3
2017-Aug-19 19:55N 39°55' E 003°39'3112.2
2017-Aug-19 17:25N 40°19' E 003°13'512.1
2017-Aug-19 17:00N 40°22' E 003°09'612.4
2017-Aug-19 16:30N 40°27' E 003°04'612.5
2017-Aug-19 16:00N 40°32' E 002°59'612.5
2017-Aug-19 15:30N 40°37' E 002°54'612.9
2017-Aug-19 15:00N 40°42' E 002°48'1211.9
2017-Aug-19 14:00N 40°51' E 002°39'612.2
2017-Aug-19 13:30N 40°56' E 002°34'612.0
2017-Aug-19 13:00N 41°01' E 002°28'612.1
2017-Aug-19 12:28N 41°05' E 002°23'612.3
2017-Aug-19 12:00N 41°10' E 002°18'612.3
2017-Aug-19 11:29N 41°15' E 002°13'5 8.9
2017-Aug-19 10:57N 41°19' E 002°09'0 0.0
2017-Aug-19 03:48N 41°19' E 002°09'0 0.0
2017-Aug-19 03:30N 41°19' E 002°09'0 0.0
2017-Aug-19 02:06N 41°19' E 002°09'0 0.0
2017-Aug-19 02:00N 41°19' E 002°09'0 0.0
2017-Aug-19 00:42N 41°19' E 002°09'0 0.0
2017-Aug-18 22:48N 41°19' E 002°09'1 1.6
2017-Aug-18 22:26N 41°19' E 002°10'1 3.0
2017-Aug-18 22:00N 41°19' E 002°11'0 0.6
2017-Aug-18 21:12N 41°20' E 002°12'0 0.0
2017-Aug-18 20:46N 41°20' E 002°12'0 0.0
2017-Aug-18 20:28N 41°20' E 002°12'0 0.0
2017-Aug-18 20:00N 41°20' E 002°12'0 0.0
2017-Aug-18 19:28N 41°20' E 002°12'0 0.0
2017-Aug-18 18:46N 41°20' E 002°12'0 0.0
2017-Aug-18 18:28N 41°20' E 002°12'0 0.0
2017-Aug-18 17:58N 41°20' E 002°12'0 0.0
2017-Aug-18 17:18N 41°20' E 002°12'0 0.0
2017-Aug-18 17:00N 41°20' E 002°12'0 0.0
2017-Aug-18 16:16N 41°20' E 002°12'0 0.0
2017-Aug-18 15:58N 41°20' E 002°12'0 0.0
2017-Aug-18 15:24N 41°20' E 002°12'0 0.0
2017-Aug-18 14:54N 41°20' E 002°12'0 0.0
2017-Aug-18 13:58N 41°20' E 002°12'0 0.0
2017-Aug-18 13:12N 41°20' E 002°12'0 0.0
2017-Aug-18 11:45N 41°20' E 002°12'0 0.0
2017-Aug-18 11:15N 41°20' E 002°12'0 0.0
2017-Aug-18 10:48N 41°20' E 002°12'0 0.0
2017-Aug-18 10:27N 41°20' E 002°12'0 0.0
2017-Aug-18 09:57N 41°20' E 002°12'0 0.0
2017-Aug-18 08:51N 41°20' E 002°12'0 0.0
2017-Aug-18 08:27N 41°20' E 002°12'0 0.0
2017-Aug-18 06:21N 41°20' E 002°12'0 0.0
2017-Aug-18 05:51N 41°20' E 002°12'0 0.0
2017-Aug-18 05:27N 41°20' E 002°12'0 0.0
2017-Aug-18 04:51N 41°20' E 002°12'0 0.0
2017-Aug-18 04:27N 41°20' E 002°12'0 0.0
2017-Aug-18 03:57N 41°20' E 002°12'1 1.7
2017-Aug-18 03:26N 41°20' E 002°13'3 6.8
2017-Aug-18 03:00N 41°17' E 002°12'5 8.1
2017-Aug-18 02:26N 41°13' E 002°09'510.8
2017-Aug-18 02:00N 41°09' E 002°05'610.8
2017-Aug-18 01:30N 41°05' E 002°01'511.1
2017-Aug-18 01:00N 41°00' E 001°58'611.1
2017-Aug-18 00:28N 40°55' E 001°53'510.9
2017-Aug-18 00:00N 40°51' E 001°49'611.0
2017-Aug-17 23:30N 40°47' E 001°45'1211.3
2017-Aug-17 22:28N 40°36' E 001°37'511.3
2017-Aug-17 22:00N 40°32' E 001°33'611.6
2017-Aug-17 21:30N 40°27' E 001°29'611.4
2017-Aug-17 21:00N 40°23' E 001°25'611.5
2017-Aug-17 20:30N 40°18' E 001°20'611.3
2017-Aug-17 20:00N 40°13' E 001°16'610.9
2017-Aug-17 19:30N 40°08' E 001°12'510.9
2017-Aug-17 19:00N 40°04' E 001°09'511.0
2017-Aug-17 18:30N 39°59' E 001°06'611.2
2017-Aug-17 18:00N 39°54' E 001°02'511.1
2017-Aug-17 17:30N 39°49' E 000°58'510.6
2017-Aug-17 17:00N 39°45' E 000°53'511.0
2017-Aug-17 16:30N 39°44' E 000°46'70 1.9
2017-Aug-16 04:24N 38°36' E 000°25'511.3
2017-Aug-16 03:59N 38°32' E 000°24'711.3
2017-Aug-16 03:25N 38°25' E 000°22'1211.1
2017-Aug-16 02:17N 38°13' E 000°19'511.1
2017-Aug-16 01:51N 38°08' E 000°17'511.3
2017-Aug-16 01:25N 38°04' E 000°14'1911.3
2017-Aug-15 23:43N 37°45' E 000°08'1211.2
2017-Aug-15 22:41N 37°34' E 000°05'411.1
2017-Aug-15 22:22N 37°31' E 000°04'611.0
2017-Aug-15 21:48N 37°25' E 000°02'611.4
2017-Aug-15 21:19N 37°19' W 000°00'411.5
2017-Aug-15 21:00N 37°16' W 000°01'611.4
2017-Aug-15 20:30N 37°10' W 000°03'611.3
2017-Aug-15 19:59N 37°05' W 000°05'611.5
2017-Aug-15 19:29N 36°59' W 000°07'611.4
2017-Aug-15 18:58N 36°53' W 000°08'611.3
2017-Aug-15 18:29N 36°48' W 000°10'510.9
2017-Aug-15 18:00N 36°43' W 000°12'510.7
2017-Aug-15 17:30N 36°38' W 000°14'710.8
2017-Aug-15 16:49N 36°31' W 000°16'310.9
2017-Aug-15 16:30N 36°27' W 000°17'910.9
2017-Aug-15 15:42N 36°19' W 000°20'310.9
2017-Aug-15 15:28N 36°16' W 000°21'37 1.0
2017-Aug-14 01:42N 35°43' W 000°38'0 0.0
2017-Aug-14 01:27N 35°43' W 000°38'0 0.0
2017-Aug-14 00:59N 35°43' W 000°38'0 0.0
2017-Aug-13 01:21N 35°43' W 000°38'0 0.0
2017-Aug-12 02:56N 35°43' W 000°38'0 0.0
2017-Aug-12 00:28N 35°43' W 000°38'0 0.0
2017-Aug-11 20:13N 35°43' W 000°38'0 0.0
2017-Aug-11 19:58N 35°43' W 000°38'0 0.0
2017-Aug-11 19:21N 35°43' W 000°38'2 0.0
2017-Aug-09 21:24N 35°45' W 000°38'0 0.0
2017-Aug-09 21:00N 35°45' W 000°38'  

Dump ship's entire track history